Time;durP1;ratioP1;P1;durP2;ratioP2;P2;SDS_P1;SDS_P2;PMS_P1;PMS_P2;Temp;Humidity;BMP_temperature;BMP_pressure;BME280_temperature;BME280_humidity;BME280_pressure;Samples;Min_cycle;Max_cycle;Signal;HPM_P1;HPM_P2
2022/02/25 00:00:45;;;;;;;2.45;0.20;;;3.30;99.90;;;;;;5019364;28;20054;-78
2022/02/25 00:03:14;;;;;;;0.45;0.13;;;3.10;99.90;;;;;;5021808;28;20026;-80
2022/02/25 00:05:41;;;;;;;0.50;0.17;;;2.90;99.90;;;;;;5031207;28;20026;-80
2022/02/25 00:08:07;;;;;;;0.88;0.30;;;2.80;99.90;;;;;;5029488;28;20053;-81
2022/02/25 00:10:33;;;;;;;2.22;0.30;;;2.70;99.90;;;;;;5031372;28;20029;-80
2022/02/25 00:13:00;;;;;;;0.55;0.15;;;2.60;99.90;;;;;;5049544;28;20083;-78
2022/02/25 00:15:25;;;;;;;1.45;0.43;;;2.60;99.90;;;;;;5047962;28;20046;-79
2022/02/25 00:17:51;;;;;;;0.22;0.10;;;2.60;99.90;;;;;;5047979;28;20025;-77
2022/02/25 00:20:17;;;;;;;2.33;0.20;;;2.60;99.90;;;;;;5049664;28;20026;-78
2022/02/25 00:22:43;;;;;;;3.20;0.22;;;2.60;99.90;;;;;;5051390;28;20021;-78
2022/02/25 00:25:10;;;;;;;0.80;0.30;;;2.60;99.90;;;;;;5053476;28;20018;-80
2022/02/25 00:27:38;;;;;;;1.23;0.32;;;2.70;99.90;;;;;;5046839;28;20351;-80
2022/02/25 00:30:05;;;;;;;0.28;0.28;;;2.70;99.90;;;;;;5047923;28;20053;-80
2022/02/25 00:32:31;;;;;;;3.05;0.20;;;2.70;99.90;;;;;;5043765;28;20506;-80
2022/02/25 00:34:57;;;;;;;0.75;0.10;;;2.80;99.90;;;;;;5043371;28;20037;-81
2022/02/25 00:37:22;;;;;;;1.80;0.30;;;2.80;99.90;;;;;;5046136;28;20091;-81
2022/02/25 00:39:48;;;;;;;0.20;0.20;;;2.70;99.90;;;;;;5049199;28;20017;-81
2022/02/25 00:42:14;;;;;;;0.73;0.22;;;2.70;99.90;;;;;;5052560;28;20041;-78
2022/02/25 00:44:40;;;;;;;4.00;0.90;;;2.70;99.90;;;;;;5047639;28;20044;-81
2022/02/25 00:47:06;;;;;;;0.10;0.10;;;2.70;99.90;;;;;;5042721;28;20397;-79
2022/02/25 00:49:32;;;;;;;0.20;0.10;;;2.60;99.90;;;;;;5045062;28;20096;-81
2022/02/25 00:51:58;;;;;;;0.73;0.25;;;2.60;99.90;;;;;;5045005;28;20051;-80
2022/02/25 00:54:23;;;;;;;1.40;0.40;;;2.60;99.90;;;;;;5045537;28;20048;-81
2022/02/25 00:56:49;;;;;;;0.20;0.20;;;2.60;99.90;;;;;;5044239;28;20536;-79
2022/02/25 00:59:15;;;;;;;0.10;0.10;;;2.60;99.90;;;;;;5043996;28;20108;-79
2022/02/25 01:01:41;;;;;;;1.10;0.28;;;2.50;99.90;;;;;;5042494;28;20033;-79
2022/02/25 01:04:07;;;;;;;1.55;0.30;;;2.50;99.90;;;;;;5043069;28;20061;-79
2022/02/25 01:06:33;;;;;;;0.93;0.25;;;2.50;99.90;;;;;;5042674;28;20052;-79
2022/02/25 01:08:58;;;;;;;1.70;0.20;;;2.40;99.90;;;;;;5043027;28;20044;-80
2022/02/25 01:11:24;;;;;;;2.10;0.20;;;2.40;99.90;;;;;;5039998;28;20026;-80
2022/02/25 01:13:50;;;;;;;2.13;0.40;;;2.40;99.90;;;;;;5041804;28;20025;-79
2022/02/25 01:16:16;;;;;;;0.15;0.15;;;2.40;99.90;;;;;;5041013;28;20033;-81
2022/02/25 01:18:41;;;;;;;1.63;0.32;;;2.40;99.90;;;;;;5042144;28;20026;-81
2022/02/25 01:21:07;;;;;;;0.75;0.20;;;2.30;99.90;;;;;;5042904;28;20073;-80
2022/02/25 01:23:33;;;;;;;0.88;0.20;;;2.30;99.90;;;;;;5043207;28;20036;-81
2022/02/25 01:25:59;;;;;;;0.75;0.30;;;2.30;99.90;;;;;;5043626;28;20030;-80
2022/02/25 01:28:25;;;;;;;1.80;0.38;;;2.30;99.90;;;;;;5041219;28;20674;-81
2022/02/25 01:30:51;;;;;;;0.20;0.20;;;2.30;99.90;;;;;;5050778;28;20084;-80
2022/02/25 01:33:16;;;;;;;4.47;0.52;;;2.30;99.90;;;;;;5047993;28;20087;-81
2022/02/25 01:35:42;;;;;;;3.13;0.82;;;2.40;99.90;;;;;;5042423;28;20099;-80
2022/02/25 01:38:08;;;;;;;1.15;0.70;;;2.40;99.90;;;;;;5043272;28;20025;-81
2022/02/25 01:40:34;;;;;;;1.88;0.68;;;2.50;99.90;;;;;;5039353;28;20034;-80
2022/02/25 01:43:00;;;;;;;0.60;0.60;;;2.50;99.90;;;;;;5041216;28;20021;-80
2022/02/25 01:45:26;;;;;;;3.28;0.50;;;2.40;99.90;;;;;;5041030;28;20466;-80
2022/02/25 01:47:52;;;;;;;0.80;0.38;;;2.40;99.90;;;;;;5038214;28;20025;-80
2022/02/25 01:50:17;;;;;;;0.45;0.30;;;2.50;99.90;;;;;;5041025;28;20105;-81
2022/02/25 01:53:01;;;;;;;2.65;1.17;;;2.50;99.90;;;;;;5043346;28;20070;-80
2022/02/25 01:55:29;;;;;;;0.50;0.22;;;2.50;99.90;;;;;;5043203;28;20022;-79
2022/02/25 01:57:55;;;;;;;0.75;0.40;;;2.50;99.90;;;;;;5041454;28;20022;-80
2022/02/25 02:00:21;;;;;;;0.40;0.10;;;2.50;99.90;;;;;;5041884;28;20536;-80
2022/02/25 02:02:47;;;;;;;2.10;0.50;;;2.50;99.90;;;;;;5040438;28;20026;-80
2022/02/25 02:05:14;;;;;;;1.15;0.38;;;2.50;99.90;;;;;;5040443;28;20026;-80
2022/02/25 02:07:40;;;;;;;1.02;0.47;;;2.60;99.90;;;;;;5040744;28;20021;-80
2022/02/25 02:10:06;;;;;;;0.75;0.30;;;2.60;99.90;;;;;;5041087;28;20022;-80
2022/02/25 02:12:33;;;;;;;0.35;0.20;;;2.60;99.90;;;;;;5045682;28;20037;-78
2022/02/25 02:14:58;;;;;;;2.05;0.35;;;2.60;99.90;;;;;;5042493;28;20061;-80
2022/02/25 02:17:24;;;;;;;0.50;0.30;;;2.60;99.90;;;;;;5029185;28;20029;-81
2022/02/25 02:19:50;;;;;;;1.77;0.25;;;2.50;99.90;;;;;;5039305;28;20037;-80
2022/02/25 02:22:16;;;;;;;1.27;0.30;;;2.50;99.90;;;;;;5042393;28;20031;-79
2022/02/25 02:24:42;;;;;;;0.20;0.10;;;2.40;99.90;;;;;;5041508;28;20022;-81
2022/02/25 02:27:08;;;;;;;1.58;0.25;;;2.30;99.90;;;;;;5041720;28;20126;-80
2022/02/25 02:29:34;;;;;;;1.33;0.10;;;2.30;99.90;;;;;;5040936;28;20025;-80
2022/02/25 02:32:00;;;;;;;0.25;0.25;;;2.30;99.90;;;;;;5043059;28;20133;-79
2022/02/25 02:34:25;;;;;;;0.45;0.20;;;2.40;99.90;;;;;;5046210;28;20435;-81
2022/02/25 02:36:51;;;;;;;0.55;0.10;;;2.40;99.90;;;;;;5043185;28;20037;-81
2022/02/25 02:39:17;;;;;;;2.13;0.40;;;2.50;99.90;;;;;;5042436;28;20057;-81
2022/02/25 02:41:44;;;;;;;0.20;0.20;;;2.50;99.90;;;;;;5042842;28;20030;-80
2022/02/25 02:44:10;;;;;;;0.82;0.20;;;2.50;99.90;;;;;;5039172;28;20053;-79
2022/02/25 02:46:36;;;;;;;0.20;0.20;;;2.50;99.90;;;;;;5041297;28;20044;-80
2022/02/25 02:49:03;;;;;;;0.40;0.30;;;2.40;99.90;;;;;;5041505;28;20025;-80
2022/02/25 02:51:32;;;;;;;1.33;0.25;;;2.50;99.90;;;;;;5041165;28;20029;-81
2022/02/25 02:53:58;;;;;;;0.98;0.30;;;2.40;99.90;;;;;;5046956;28;20021;-81
2022/02/25 02:56:24;;;;;;;0.20;0.17;;;2.40;99.90;;;;;;5042755;28;20032;-81
2022/02/25 02:58:55;;;;;;;2.55;0.28;;;2.40;99.90;;;;;;5040577;28;20545;-80
2022/02/25 03:01:23;;;;;;;0.83;0.30;;;2.40;99.90;;;;;;5042768;28;20017;-80
2022/02/25 03:03:48;;;;;;;0.52;0.10;;;2.40;99.90;;;;;;5041952;28;20029;-80
2022/02/25 03:06:14;;;;;;;0.90;0.30;;;2.40;99.90;;;;;;5041118;28;20090;-81
2022/02/25 03:08:40;;;;;;;0.73;0.10;;;2.40;99.90;;;;;;5041280;28;20087;-80
2022/02/25 03:11:05;;;;;;;1.00;0.20;;;2.40;99.90;;;;;;5040337;28;20029;-78
2022/02/25 03:13:31;;;;;;;0.40;0.20;;;2.40;99.90;;;;;;5039483;28;20124;-81
2022/02/25 03:15:57;;;;;;;1.55;0.30;;;2.40;99.90;;;;;;5019021;28;20113;-80
2022/02/25 03:18:22;;;;;;;0.32;0.17;;;2.40;99.90;;;;;;5020762;28;20438;-81
2022/02/25 03:20:48;;;;;;;0.30;0.17;;;2.40;99.90;;;;;;5021282;28;20041;-80
2022/02/25 03:23:14;;;;;;;2.35;0.20;;;2.50;99.90;;;;;;5021674;28;20017;-80
2022/02/25 03:25:40;;;;;;;2.40;0.40;;;2.50;99.90;;;;;;5027642;28;20022;-78
2022/02/25 03:28:06;;;;;;;2.53;0.20;;;2.40;99.90;;;;;;5030113;28;20021;-79
2022/02/25 03:30:32;;;;;;;2.80;0.30;;;2.50;99.90;;;;;;5024013;28;20120;-82
2022/02/25 03:32:58;;;;;;;0.30;0.10;;;2.50;99.90;;;;;;5021150;28;20018;-81
2022/02/25 03:35:24;;;;;;;0.20;0.17;;;2.50;99.90;;;;;;5020937;28;20045;-81
2022/02/25 03:37:49;;;;;;;3.15;0.22;;;2.50;99.90;;;;;;5019344;28;20033;-79
2022/02/25 03:40:16;;;;;;;0.20;0.20;;;2.50;99.90;;;;;;5020678;28;20546;-79
2022/02/25 03:42:42;;;;;;;1.60;0.30;;;2.50;99.90;;;;;;5021222;28;20460;-79
2022/02/25 03:45:09;;;;;;;0.80;0.28;;;2.50;99.90;;;;;;5020538;28;20026;-80
2022/02/25 03:47:35;;;;;;;1.15;0.20;;;2.50;99.90;;;;;;5020340;28;20053;-81
2022/02/25 03:50:02;;;;;;;0.30;0.30;;;2.50;99.90;;;;;;5020334;28;20030;-81
2022/02/25 03:52:28;;;;;;;1.08;0.20;;;2.50;99.90;;;;;;5021010;28;20497;-81
2022/02/25 03:54:54;;;;;;;2.22;0.32;;;2.50;99.90;;;;;;5018920;28;20026;-80
2022/02/25 03:57:20;;;;;;;0.75;0.10;;;2.50;99.90;;;;;;5021686;28;20037;-80
2022/02/25 03:59:47;;;;;;;1.02;0.30;;;2.50;99.90;;;;;;5021487;28;20425;-80
2022/02/25 04:02:13;;;;;;;3.13;0.20;;;2.50;99.90;;;;;;5020272;28;20029;-80
2022/02/25 04:04:39;;;;;;;2.45;0.30;;;2.50;99.90;;;;;;5021787;28;20030;-80
2022/02/25 04:07:05;;;;;;;0.22;0.20;;;2.50;99.90;;;;;;5020276;28;20033;-80
2022/02/25 04:09:31;;;;;;;1.48;0.32;;;2.50;99.90;;;;;;5054125;23;20053;-85
2022/02/25 04:11:57;;;;;;;0.20;0.20;;;2.60;99.90;;;;;;5043796;28;20022;-86
2022/02/25 04:14:23;;;;;;;3.17;0.38;;;2.60;99.90;;;;;;5066952;28;20029;-84
2022/02/25 04:16:51;;;;;;;1.48;0.10;;;2.60;99.90;;;;;;5057685;28;20065;-84
2022/02/25 04:19:18;;;;;;;1.75;0.20;;;2.60;99.90;;;;;;5059400;28;20068;-85
2022/02/25 04:21:45;;;;;;;1.67;0.43;;;2.60;99.90;;;;;;5046075;28;20026;-85
2022/02/25 04:24:12;;;;;;;2.58;0.35;;;2.60;99.90;;;;;;5045670;28;20017;-85
2022/02/25 04:26:38;;;;;;;2.80;0.30;;;2.60;99.90;;;;;;5044884;28;20036;-87
2022/02/25 04:29:04;;;;;;;1.10;0.32;;;2.60;99.90;;;;;;5050629;28;20096;-86
2022/02/25 04:31:31;;;;;;;0.82;0.38;;;2.60;99.90;;;;;;5043772;28;20029;-87
2022/02/25 04:33:57;;;;;;;0.90;0.38;;;2.60;99.90;;;;;;5039485;28;20454;-86
2022/02/25 04:36:23;;;;;;;1.15;0.35;;;2.60;99.90;;;;;;5040995;28;20038;-87
2022/02/25 04:38:55;;;;;;;3.08;0.40;;;2.60;98.80;;;;;;5056478;28;20033;-88
2022/02/25 04:41:21;;;;;;;0.43;0.40;;;2.60;99.10;;;;;;5039149;28;20052;-86
2022/02/25 04:43:47;;;;;;;0.80;0.32;;;2.70;99.90;;;;;;5038748;28;20020;-85
2022/02/25 04:46:24;;;;;;;1.75;0.22;;;2.60;98.50;;;;;;5039369;28;20018;-86
2022/02/25 04:48:49;;;;;;;0.70;0.30;;;2.60;98.80;;;;;;5038475;28;20049;-86
2022/02/25 04:51:18;;;;;;;1.60;0.30;;;2.60;99.40;;;;;;5048054;28;20021;-86
2022/02/25 04:53:46;;;;;;;2.53;0.70;;;2.60;99.20;;;;;;5054600;28;20029;-87
2022/02/25 04:56:13;;;;;;;2.13;0.20;;;2.60;99.90;;;;;;5054880;28;20025;-85
2022/02/25 04:58:39;;;;;;;1.83;0.40;;;2.60;98.60;;;;;;5037838;28;20025;-87
2022/02/25 05:01:05;;;;;;;0.95;0.25;;;2.60;98.40;;;;;;5037396;28;20033;-87
2022/02/25 05:03:34;;;;;;;1.83;0.30;;;2.60;98.10;;;;;;5038581;28;20025;-86
2022/02/25 05:06:00;;;;;;;0.30;0.17;;;2.60;99.70;;;;;;5054383;28;20548;-86
2022/02/25 05:08:27;;;;;;;3.83;0.73;;;2.60;99.50;;;;;;5037435;28;20033;-85
2022/02/25 05:10:53;;;;;;;0.32;0.10;;;2.50;99.90;;;;;;5038407;28;20021;-84
2022/02/25 05:13:19;;;;;;;2.13;0.32;;;2.60;99.90;;;;;;5039540;28;20479;-85
2022/02/25 05:21:15;;;;;;;0.73;0.20;;;2.50;99.90;;;;;;5043403;28;20045;-85
2022/02/25 05:23:41;;;;;;;1.67;0.20;;;2.50;99.90;;;;;;5046631;28;20021;-85
2022/02/25 05:26:07;;;;;;;0.30;0.10;;;2.50;99.80;;;;;;5045267;28;20040;-85
2022/02/25 05:28:33;;;;;;;1.60;0.32;;;2.50;99.90;;;;;;5043296;28;20032;-85
2022/02/25 05:30:58;;;;;;;1.75;0.40;;;2.50;99.00;;;;;;5046113;28;20041;-85
2022/02/25 05:33:24;;;;;;;3.30;0.40;;;2.50;98.90;;;;;;5039169;28;20036;-84
2022/02/25 05:35:50;;;;;;;2.58;0.40;;;2.50;98.00;;;;;;5033084;28;20434;-84
2022/02/25 05:38:16;;;;;;;2.50;0.40;;;2.50;98.10;;;;;;5019114;28;20104;-83
2022/02/25 05:40:42;;;;;;;1.25;0.38;;;2.50;99.40;;;;;;5017301;28;20391;-86
2022/02/25 05:43:08;;;;;;;2.45;0.43;;;2.50;99.40;;;;;;5042938;28;20033;-86
2022/02/25 05:45:34;;;;;;;2.75;0.47;;;2.40;98.20;;;;;;5035697;28;20026;-85
2022/02/25 05:48:00;;;;;;;0.40;0.20;;;2.40;98.20;;;;;;5039807;28;20053;-84
2022/02/25 05:50:26;;;;;;;1.83;1.08;;;2.40;98.10;;;;;;5034811;28;20038;-87
2022/02/25 05:52:52;;;;;;;3.50;0.50;;;2.40;97.80;;;;;;5051059;28;20034;-84
2022/02/25 05:55:20;;;;;;;1.75;0.28;;;2.40;99.10;;;;;;5051459;28;20026;-84
2022/02/25 05:57:46;;;;;;;2.47;0.40;;;2.40;99.60;;;;;;5024732;28;20026;-86
2022/02/25 06:00:14;;;;;;;0.82;0.40;;;2.40;98.20;;;;;;5037837;28;20084;-85
2022/02/25 06:02:41;;;;;;;1.42;0.30;;;2.40;97.90;;;;;;5023856;28;20030;-85
2022/02/25 06:05:07;;;;;;;1.08;0.63;;;2.40;99.70;;;;;;5038433;28;20029;-85
2022/02/25 06:07:33;;;;;;;1.00;0.40;;;2.40;99.90;;;;;;5023722;28;20293;-85
2022/02/25 06:09:58;;;;;;;0.77;0.43;;;2.40;99.00;;;;;;5042471;28;20034;-85
2022/02/25 06:12:24;;;;;;;2.08;0.47;;;2.40;99.10;;;;;;5042193;28;20119;-85
2022/02/25 06:14:50;;;;;;;3.53;0.38;;;2.40;98.10;;;;;;5064385;28;20021;-83
2022/02/25 06:17:16;;;;;;;3.67;0.52;;;2.40;99.30;;;;;;5057438;28;20037;-80
2022/02/25 06:19:41;;;;;;;1.10;0.50;;;2.40;98.70;;;;;;5072100;28;20025;-81
2022/02/25 06:22:07;;;;;;;1.45;0.28;;;2.40;99.00;;;;;;5056586;28;20056;-81
2022/02/25 06:24:33;;;;;;;0.45;0.30;;;2.40;99.30;;;;;;5057040;28;20132;-81
2022/02/25 06:26:59;;;;;;;3.40;0.32;;;2.40;97.90;;;;;;5055608;28;20052;-84
2022/02/25 06:29:25;;;;;;;1.30;0.50;;;2.40;98.90;;;;;;5051459;28;20410;-85
2022/02/25 06:31:50;;;;;;;3.17;0.45;;;2.40;99.00;;;;;;5061896;28;20029;-84
2022/02/25 06:34:16;;;;;;;0.77;0.30;;;2.40;98.50;;;;;;5060605;28;20036;-86
2022/02/25 06:36:42;;;;;;;3.13;0.50;;;2.40;98.30;;;;;;5052071;28;20041;-83
2022/02/25 06:39:08;;;;;;;1.63;0.43;;;2.40;96.90;;;;;;5062931;28;20026;-84
2022/02/25 06:41:34;;;;;;;2.47;0.40;;;2.40;95.80;;;;;;5042878;28;20035;-84
2022/02/25 06:44:00;;;;;;;2.10;0.47;;;2.40;95.70;;;;;;5043494;28;20022;-85
2022/02/25 06:46:26;;;;;;;2.28;0.52;;;2.40;95.30;;;;;;5043597;28;20067;-86
2022/02/25 06:48:52;;;;;;;1.95;0.60;;;2.40;95.30;;;;;;5045547;28;20021;-84
2022/02/25 06:51:18;;;;;;;2.40;0.57;;;2.30;95.70;;;;;;5040479;28;20106;-84
2022/02/25 06:53:43;;;;;;;1.70;0.40;;;2.30;96.00;;;;;;5039051;28;20240;-84
2022/02/25 06:56:10;;;;;;;1.33;0.40;;;2.30;96.20;;;;;;5041878;28;20508;-85
2022/02/25 06:58:36;;;;;;;2.08;0.40;;;2.40;96.40;;;;;;5039689;28;20481;-86
2022/02/25 07:01:03;;;;;;;3.45;0.73;;;2.40;95.40;;;;;;5045109;28;20029;-85
2022/02/25 07:03:29;;;;;;;3.05;0.55;;;2.40;95.60;;;;;;5054574;28;20040;-81
2022/02/25 07:05:55;;;;;;;1.00;0.47;;;2.40;95.60;;;;;;5050930;28;20022;-84
2022/02/25 07:08:22;;;;;;;1.73;0.52;;;2.40;95.60;;;;;;5042468;28;20033;-85
2022/02/25 07:10:48;;;;;;;2.45;0.73;;;2.40;95.90;;;;;;5039200;28;20465;-86
2022/02/25 07:13:14;;;;;;;2.60;0.90;;;2.30;96.00;;;;;;5039954;28;20072;-86
2022/02/25 07:15:40;;;;;;;1.80;0.80;;;2.30;95.90;;;;;;5056401;28;20030;-85
2022/02/25 07:18:06;;;;;;;4.65;0.50;;;2.30;95.60;;;;;;5040480;28;20040;-86
2022/02/25 07:20:32;;;;;;;4.55;0.80;;;2.30;95.50;;;;;;5039198;28;20029;-85
2022/02/25 07:22:58;;;;;;;3.60;0.70;;;2.40;95.60;;;;;;5042255;28;20038;-81
2022/02/25 07:25:24;;;;;;;4.72;0.47;;;2.50;95.40;;;;;;5056084;28;20021;-83
2022/02/25 07:27:50;;;;;;;1.05;0.63;;;2.50;95.30;;;;;;5054443;28;20021;-85
2022/02/25 07:30:16;;;;;;;1.17;0.85;;;2.50;94.90;;;;;;5038400;28;20030;-86
2022/02/25 07:32:45;;;;;;;4.15;0.80;;;2.50;94.80;;;;;;5039015;28;20025;-85
2022/02/25 07:35:12;;;;;;;1.55;0.50;;;2.50;94.60;;;;;;5038940;28;20028;-83
2022/02/25 07:37:39;;;;;;;3.35;0.82;;;2.50;94.40;;;;;;5040814;28;20021;-82
2022/02/25 07:40:07;;;;;;;1.30;0.60;;;2.40;94.10;;;;;;5043505;28;20026;-84
2022/02/25 07:42:33;;;;;;;1.75;0.43;;;2.40;94.40;;;;;;5049189;28;20474;-86
2022/02/25 07:44:59;;;;;;;0.93;0.47;;;2.40;94.40;;;;;;5037986;28;20056;-84
2022/02/25 07:47:26;;;;;;;2.17;0.77;;;2.30;94.40;;;;;;5065767;28;20013;-82
2022/02/25 07:49:53;;;;;;;2.30;0.63;;;2.30;94.30;;;;;;5052949;28;20129;-81
2022/02/25 07:52:20;;;;;;;1.70;0.60;;;2.30;94.30;;;;;;5043820;28;20029;-85
2022/02/25 07:54:46;;;;;;;3.10;0.80;;;2.40;94.20;;;;;;5050025;28;20052;-84
2022/02/25 07:57:14;;;;;;;1.95;0.50;;;2.50;94.00;;;;;;5042289;28;20385;-86
2022/02/25 07:59:40;;;;;;;1.83;0.77;;;2.70;93.10;;;;;;5037280;28;20025;-84
2022/02/25 08:02:06;;;;;;;5.63;0.88;;;2.90;92.50;;;;;;5039189;28;20034;-85
2022/02/25 08:04:32;;;;;;;4.15;0.60;;;3.00;91.90;;;;;;5040260;28;20024;-83
2022/02/25 08:06:59;;;;;;;1.80;0.75;;;3.10;91.70;;;;;;5038254;28;20028;-84
2022/02/25 08:09:24;;;;;;;2.00;0.50;;;3.30;91.30;;;;;;5035088;28;20026;-85
2022/02/25 08:11:50;;;;;;;4.38;0.88;;;3.50;91.10;;;;;;5037672;28;20024;-85
2022/02/25 08:14:16;;;;;;;8.60;1.35;;;3.70;90.70;;;;;;5038145;28;20098;-84
2022/02/25 08:16:42;;;;;;;3.60;0.95;;;3.90;90.30;;;;;;5037756;28;20026;-84
2022/02/25 08:19:08;;;;;;;5.78;1.30;;;4.00;89.50;;;;;;5038324;28;20026;-86
2022/02/25 08:21:34;;;;;;;3.42;1.05;;;4.10;88.70;;;;;;5037623;28;20026;-84
2022/02/25 08:24:00;;;;;;;2.90;0.93;;;4.20;87.30;;;;;;5044170;28;20022;-85
2022/02/25 08:26:26;;;;;;;4.93;0.90;;;4.30;87.60;;;;;;5038618;28;20036;-86
2022/02/25 08:28:53;;;;;;;2.75;0.73;;;4.40;87.30;;;;;;5038101;28;20026;-83
2022/02/25 08:31:19;;;;;;;2.03;0.60;;;4.60;86.90;;;;;;5040476;28;20041;-84
2022/02/25 08:33:45;;;;;;;6.28;1.02;;;4.70;86.20;;;;;;5038799;28;20041;-86
2022/02/25 08:36:11;;;;;;;7.38;1.45;;;4.90;85.90;;;;;;5036673;28;20474;-84
2022/02/25 08:38:36;;;;;;;2.30;0.85;;;5.10;83.60;;;;;;5037540;28;20025;-83
2022/02/25 08:41:03;;;;;;;3.30;1.20;;;5.30;83.20;;;;;;5027199;28;20109;-87
2022/02/25 08:43:30;;;;;;;3.95;1.25;;;5.40;79.60;;;;;;5053635;28;20021;-86
2022/02/25 08:45:56;;;;;;;5.55;1.67;;;5.50;79.10;;;;;;5038458;28;20033;-85
2022/02/25 08:48:23;;;;;;;3.63;1.30;;;5.60;77.90;;;;;;5042289;28;20359;-85
2022/02/25 08:50:50;;;;;;;4.15;1.00;;;5.60;77.40;;;;;;5049017;28;20079;-82
2022/02/25 08:53:16;;;;;;;4.63;0.82;;;5.70;74.70;;;;;;5054368;28;20040;-81
2022/02/25 08:55:42;;;;;;;3.45;1.05;;;5.80;75.60;;;;;;5068861;28;20025;-84
2022/02/25 08:58:08;;;;;;;3.70;0.85;;;6.00;74.50;;;;;;5049754;28;20065;-83
2022/02/25 09:00:35;;;;;;;7.05;1.00;;;6.20;73.40;;;;;;5045393;28;20049;-85
2022/02/25 09:03:00;;;;;;;4.70;0.95;;;6.30;69.20;;;;;;5045681;28;20025;-85
2022/02/25 09:05:26;;;;;;;5.10;0.80;;;6.40;68.40;;;;;;5051950;28;20047;-83
2022/02/25 09:07:53;;;;;;;5.22;1.40;;;6.30;67.80;;;;;;5054833;28;20086;-85
2022/02/25 09:10:20;;;;;;;4.35;1.08;;;6.10;68.20;;;;;;5050842;28;20040;-85
2022/02/25 09:12:48;;;;;;;3.60;0.90;;;6.10;66.00;;;;;;5051504;28;20025;-85
2022/02/25 09:15:17;;;;;;;11.20;2.17;;;6.30;64.80;;;;;;5043833;28;20103;-84
2022/02/25 09:17:43;;;;;;;5.18;0.82;;;6.30;63.80;;;;;;5046232;28;20039;-85
2022/02/25 09:20:10;;;;;;;6.82;0.93;;;6.50;63.20;;;;;;5045203;28;20022;-84
2022/02/25 09:22:37;;;;;;;5.30;1.10;;;6.50;61.40;;;;;;5044493;28;20442;-84
2022/02/25 09:25:04;;;;;;;6.78;0.95;;;6.60;60.60;;;;;;5046916;28;20022;-85
2022/02/25 09:27:32;;;;;;;2.90;0.85;;;6.60;61.40;;;;;;5042349;28;20022;-85
2022/02/25 09:29:58;;;;;;;2.88;0.60;;;6.60;59.70;;;;;;5039463;28;20087;-83
2022/02/25 09:32:25;;;;;;;4.00;0.90;;;6.70;59.30;;;;;;5039471;28;20034;-84
2022/02/25 09:34:50;;;;;;;2.60;0.80;;;7.00;58.00;;;;;;5045387;28;20104;-82
2022/02/25 09:37:17;;;;;;;3.90;0.90;;;7.20;56.00;;;;;;5056375;28;20024;-82
2022/02/25 09:39:42;;;;;;;4.65;1.00;;;7.40;55.10;;;;;;5041384;28;20024;-86
2022/02/25 09:42:09;;;;;;;4.68;1.02;;;7.50;54.90;;;;;;5039725;28;20030;-87
2022/02/25 09:44:36;;;;;;;6.43;1.25;;;7.60;53.20;;;;;;5040809;28;20022;-85
2022/02/25 09:47:03;;;;;;;4.00;0.73;;;7.60;53.40;;;;;;5038957;28;20021;-86
2022/02/25 09:49:28;;;;;;;2.92;1.00;;;7.70;53.10;;;;;;5055841;28;20509;-86
2022/02/25 09:51:56;;;;;;;3.17;0.85;;;7.80;53.00;;;;;;5038959;28;20075;-84
2022/02/25 09:54:23;;;;;;;3.67;1.17;;;7.80;51.80;;;;;;5039757;28;20077;-86
2022/02/25 09:56:49;;;;;;;6.15;1.15;;;7.90;51.80;;;;;;5041927;28;20025;-85
2022/02/25 09:59:16;;;;;;;4.72;1.10;;;7.90;52.30;;;;;;5036963;28;20045;-86
2022/02/25 10:01:43;;;;;;;3.72;0.65;;;8.10;50.20;;;;;;5039203;28;20057;-86
2022/02/25 10:04:28;;;;;;;3.20;0.60;;;8.00;48.50;;;;;;5038942;28;20052;-86
2022/02/25 10:06:53;;;;;;;4.05;0.90;;;7.90;48.60;;;;;;5037419;28;20083;-85
2022/02/25 10:09:34;;;;;;;1.83;0.80;;;7.90;49.80;;;;;;5036041;28;20064;-83
2022/02/25 10:12:06;;;;;;;3.10;0.95;;;8.20;49.20;;;;;;5044521;28;20033;-83
2022/02/25 10:14:46;;;;;;;1.65;0.40;;;8.40;49.60;;;;;;5059187;28;20439;-83
2022/02/25 10:17:14;;;;;;;3.63;0.47;;;8.10;50.50;;;;;;5044866;28;20477;-83
2022/02/25 10:19:47;;;;;;;2.67;0.70;;;7.80;50.30;;;;;;5045344;28;20081;-83
2022/02/25 10:22:30;;;;;;;5.60;1.58;;;7.60;50.90;;;;;;5053019;28;20057;-83
2022/02/25 10:25:01;;;;;;;5.57;0.75;;;7.60;50.20;;;;;;5051828;28;20021;-83
2022/02/25 10:27:37;;;;;;;4.57;0.82;;;7.70;48.40;;;;;;5055236;28;20037;-81
2022/02/25 10:30:14;;;;;;;5.78;0.80;;;7.60;48.00;;;;;;5036560;28;20026;-80
2022/02/25 10:32:41;;;;;;;4.60;1.00;;;7.40;47.50;;;;;;5036829;28;20049;-80
2022/02/25 10:35:28;;;;;;;3.10;0.55;;;7.00;48.70;;;;;;5036266;28;20022;-79
2022/02/25 10:38:02;;;;;;;4.22;0.73;;;6.90;50.20;;;;;;5053331;28;20028;-80
2022/02/25 10:40:34;;;;;;;3.90;1.23;;;7.00;50.00;;;;;;5036099;28;20372;-82
2022/02/25 10:43:00;;;;;;;4.90;0.82;;;7.10;50.80;;;;;;5036867;28;20039;-79
2022/02/25 10:45:31;;;;;;;8.23;1.10;;;7.20;50.30;;;;;;5035656;28;20029;-80
2022/02/25 10:47:59;;;;;;;1.70;0.68;;;7.00;49.60;;;;;;5036717;28;20377;-80
2022/02/25 10:50:27;;;;;;;1.52;0.65;;;6.60;50.00;;;;;;5035306;28;20095;-79
2022/02/25 10:52:55;;;;;;;2.88;0.75;;;6.30;50.70;;;;;;5034885;28;20115;-79
2022/02/25 10:55:26;;;;;;;6.20;1.25;;;5.90;51.40;;;;;;5051707;28;20048;-80
2022/02/25 10:57:54;;;;;;;2.10;0.60;;;5.70;52.00;;;;;;5036064;28;20052;-81
2022/02/25 11:00:21;;;;;;;1.98;0.80;;;5.80;52.70;;;;;;5036232;28;20017;-80
2022/02/25 11:02:49;;;;;;;5.45;0.88;;;5.90;52.20;;;;;;5036359;28;20440;-80
2022/02/25 11:05:21;;;;;;;5.05;0.60;;;5.90;52.50;;;;;;5036738;28;20509;-80
2022/02/25 11:07:52;;;;;;;2.92;0.60;;;6.20;53.00;;;;;;5036584;28;20021;-82
2022/02/25 11:10:21;;;;;;;1.73;0.60;;;6.70;52.30;;;;;;5037248;28;20091;-78
2022/02/25 11:12:48;;;;;;;7.38;1.13;;;7.10;50.00;;;;;;5040597;28;20036;-78
2022/02/25 11:15:26;;;;;;;7.65;1.15;;;7.40;50.00;;;;;;5037022;28;20033;-80
2022/02/25 11:17:53;;;;;;;1.95;0.50;;;7.70;49.20;;;;;;5038949;28;20070;-79
2022/02/25 11:20:27;;;;;;;10.57;1.17;;;7.90;47.50;;;;;;5056239;28;20391;-79
2022/02/25 11:23:01;;;;;;;6.97;1.00;;;8.10;48.00;;;;;;5047760;28;20025;-78
2022/02/25 11:25:28;;;;;;;4.47;0.90;;;8.30;48.40;;;;;;5056661;28;20112;-78
2022/02/25 11:27:55;;;;;;;6.47;1.13;;;8.40;48.40;;;;;;5048069;28;20017;-78
2022/02/25 11:30:27;;;;;;;6.25;0.50;;;8.50;47.20;;;;;;5049401;28;20017;-78
2022/02/25 11:33:03;;;;;;;6.15;1.10;;;8.10;46.80;;;;;;5046176;28;20045;-80
2022/02/25 11:35:32;;;;;;;4.00;1.02;;;7.90;48.00;;;;;;5044322;28;20060;-81
2022/02/25 11:38:07;;;;;;;3.80;1.00;;;7.70;48.70;;;;;;5040181;28;20025;-79
2022/02/25 11:40:45;;;;;;;6.32;0.80;;;7.80;48.50;;;;;;5034159;28;20072;-80
2022/02/25 11:43:11;;;;;;;1.85;0.60;;;7.90;48.60;;;;;;5036470;28;20025;-78
2022/02/25 11:45:52;;;;;;;4.60;0.82;;;8.10;48.40;;;;;;5053049;28;20024;-79
2022/02/25 11:48:36;;;;;;;2.08;0.60;;;7.90;49.40;;;;;;5036819;28;20022;-79
2022/02/25 11:51:02;;;;;;;3.78;0.50;;;7.70;50.00;;;;;;5037240;28;20029;-79
2022/02/25 11:53:30;;;;;;;3.72;0.77;;;7.50;47.10;;;;;;5052024;28;20032;-79
2022/02/25 11:56:26;;;;;;;5.07;0.60;;;7.10;47.10;;;;;;5036552;28;20038;-80
2022/02/25 11:58:52;;;;;;;2.10;0.70;;;6.70;48.50;;;;;;5035684;28;20056;-78
2022/02/25 12:01:22;;;;;;;4.28;0.63;;;6.50;49.80;;;;;;5036891;28;20116;-80
2022/02/25 12:04:12;;;;;;;3.40;0.50;;;6.40;50.90;;;;;;5035081;28;20026;-79
2022/02/25 12:07:05;;;;;;;1.33;0.55;;;6.40;52.00;;;;;;5035982;28;20370;-79
2022/02/25 12:09:46;;;;;;;5.18;0.75;;;6.20;52.60;;;;;;5036232;28;20493;-79
2022/02/25 12:12:23;;;;;;;4.78;0.70;;;6.00;53.70;;;;;;5052100;28;20037;-80
2022/02/25 12:15:18;;;;;;;2.35;0.60;;;5.80;54.00;;;;;;5051144;28;20025;-79
2022/02/25 12:17:56;;;;;;;9.43;1.35;;;5.60;54.30;;;;;;5051685;28;20093;-81
2022/02/25 12:21:04;;;;;;;2.90;0.80;;;5.50;55.20;;;;;;5036232;28;20069;-82
2022/02/25 12:23:41;;;;;;;4.78;0.82;;;5.40;55.10;;;;;;5032109;28;20445;-81
2022/02/25 12:26:07;;;;;;;2.70;0.65;;;5.40;55.10;;;;;;5035423;28;20018;-78
2022/02/25 12:28:47;;;;;;;3.80;0.73;;;5.70;54.80;;;;;;5034986;28;20100;-79
2022/02/25 12:31:37;;;;;;;4.53;1.10;;;5.90;53.50;;;;;;5034214;28;20034;-81
2022/02/25 12:34:04;;;;;;;8.48;1.17;;;5.80;53.50;;;;;;5039357;28;20072;-79
2022/02/25 12:36:29;;;;;;;1.80;0.63;;;5.80;53.10;;;;;;5039317;28;20022;-78
2022/02/25 12:39:14;;;;;;;6.03;1.02;;;5.80;53.20;;;;;;5054655;28;20037;-82
2022/02/25 12:41:45;;;;;;;1.52;0.60;;;6.30;52.70;;;;;;5023854;28;20457;-82
2022/02/25 12:44:12;;;;;;;3.80;0.87;;;6.50;51.60;;;;;;5054654;28;20029;-79
2022/02/25 12:46:44;;;;;;;3.42;1.00;;;7.00;50.80;;;;;;5039441;28;20265;-80
2022/02/25 12:49:13;;;;;;;2.00;0.70;;;7.30;49.20;;;;;;5038222;28;20108;-80
2022/02/25 12:51:40;;;;;;;4.68;1.00;;;7.40;48.70;;;;;;5038860;28;20057;-81
2022/02/25 12:54:08;;;;;;;5.25;1.08;;;7.30;48.40;;;;;;5053608;28;20033;-79
2022/02/25 12:56:51;;;;;;;5.95;0.95;;;7.10;48.40;;;;;;5038594;28;20116;-80
2022/02/25 12:59:49;;;;;;;4.63;0.80;;;6.90;49.30;;;;;;5038272;28;20029;-81
2022/02/25 13:02:21;;;;;;;2.08;0.63;;;6.70;49.80;;;;;;5036911;28;20367;-81
2022/02/25 13:04:49;;;;;;;3.28;0.73;;;6.40;51.50;;;;;;5038362;28;20296;-78
2022/02/25 13:07:18;;;;;;;3.30;0.77;;;6.20;51.70;;;;;;5038786;28;20025;-80